Time;durP1;ratioP1;P1;durP2;ratioP2;P2;SDS_P1;SDS_P2;PMS_P1;PMS_P2;Temp;Humidity;BMP_temperature;BMP_pressure;BME280_temperature;BME280_humidity;BME280_pressure;Samples;Min_cycle;Max_cycle;Signal;HPM_P1;HPM_P2
2023/06/08 00:00:59;;;;;;;7.10;3.20;;;;;;;13.62;100.00;100774.39;105042;1254;61458;-63
2023/06/08 00:03:27;;;;;;;6.50;3.50;;;;;;;13.59;100.00;100772.88;105362;1257;60645;-62
2023/06/08 00:05:58;;;;;;;10.40;3.60;;;;;;;13.55;100.00;100774.98;105222;1257;73244;-63
2023/06/08 00:08:29;;;;;;;5.60;3.20;;;;;;;13.51;100.00;100770.52;105318;1258;66980;-62
2023/06/08 00:10:57;;;;;;;8.30;3.40;;;;;;;13.47;100.00;100769.84;105374;1254;72853;-62
2023/06/08 00:13:25;;;;;;;11.00;3.80;;;;;;;13.43;100.00;100770.17;105279;1257;60623;-63
2023/06/08 00:15:52;;;;;;;7.50;3.30;;;;;;;13.40;100.00;100764.71;105188;1254;60618;-63
2023/06/08 00:18:20;;;;;;;6.30;3.30;;;;;;;13.39;100.00;100766.60;105425;1258;73825;-70
2023/06/08 00:20:51;;;;;;;8.50;3.70;;;;;;;13.37;100.00;100774.85;105319;1254;67186;-63
2023/06/08 00:23:19;;;;;;;7.50;3.40;;;;;;;13.35;100.00;100781.22;105216;1255;71636;-63
2023/06/08 00:25:47;;;;;;;5.70;3.20;;;;;;;13.31;100.00;100776.61;105514;1254;60789;-67
2023/06/08 00:28:16;;;;;;;6.90;3.30;;;;;;;13.28;100.00;100778.55;105211;1254;60663;-71
2023/06/08 00:30:44;;;;;;;10.40;3.00;;;;;;;13.24;100.00;100775.64;105287;1254;73833;-62
2023/06/08 00:33:12;;;;;;;6.90;3.10;;;;;;;13.19;100.00;100774.92;105111;1260;68033;-62
2023/06/08 00:35:40;;;;;;;7.90;3.70;;;;;;;13.16;100.00;100776.84;105391;1254;72719;-63
2023/06/08 00:38:08;;;;;;;5.30;3.10;;;;;;;13.15;100.00;100778.89;105596;1255;60320;-67
2023/06/08 00:40:37;;;;;;;5.50;2.80;;;;;;;13.13;100.00;100777.09;105393;1259;60281;-66
2023/06/08 00:43:05;;;;;;;9.80;3.20;;;;;;;13.12;100.00;100778.80;105173;1260;74050;-63
2023/06/08 00:45:33;;;;;;;8.70;3.20;;;;;;;13.11;100.00;100781.55;105734;1259;65645;-62
2023/06/08 00:48:02;;;;;;;5.90;3.10;;;;;;;13.09;100.00;100781.23;105523;1257;72803;-64
2023/06/08 00:50:31;;;;;;;6.20;3.10;;;;;;;13.06;100.00;100782.16;105609;1259;60680;-62
2023/06/08 00:52:59;;;;;;;5.60;3.00;;;;;;;13.02;100.00;100781.23;105757;1257;60355;-63
2023/06/08 00:55:29;;;;;;;5.20;2.50;;;;;;;12.98;100.00;100781.25;105207;1257;73882;-62
2023/06/08 01:05:46;;;;;;;6.40;2.80;;;;;;;12.88;100.00;100776.48;101942;1291;600041;-71
2023/06/08 01:08:35;;;;;;;9.90;4.30;;;;;;;12.86;100.00;100780.11;104224;1267;60783;-66
2023/06/08 01:11:08;;;;;;;6.50;2.70;;;;;;;12.87;100.00;100783.21;104567;1272;59353;-63
2023/06/08 01:13:51;;;;;;;5.80;3.10;;;;;;;12.87;100.00;100786.48;105029;1264;70744;-63
2023/06/08 01:16:19;;;;;;;5.30;2.90;;;;;;;12.88;100.00;100789.32;104433;1270;65744;-62
2023/06/08 01:18:48;;;;;;;6.50;3.00;;;;;;;12.90;100.00;100792.88;104965;1254;190917;-62
2023/06/08 01:21:43;;;;;;;5.20;2.80;;;;;;;12.91;100.00;100794.86;105877;1257;59405;-71
2023/06/08 01:24:13;;;;;;;6.10;3.00;;;;;;;12.90;100.00;100796.45;105548;1250;60037;-62
2023/06/08 01:26:43;;;;;;;7.80;2.70;;;;;;;12.86;100.00;100796.35;105479;1252;72570;-62
2023/06/08 01:29:11;;;;;;;8.40;2.60;;;;;;;12.82;100.00;100800.89;105683;1256;65673;-71
2023/06/08 01:31:40;;;;;;;5.20;3.20;;;;;;;12.78;100.00;100801.79;105385;1251;73249;-63
2023/06/08 01:34:12;;;;;;;6.70;3.50;;;;;;;12.74;100.00;100802.63;105406;1251;61732;-64
2023/06/08 01:36:49;;;;;;;;;;;;;;;12.70;100.00;100798.54;105383;1251;60558;-62
2023/06/08 01:39:30;;;;;;;5.40;3.00;;;;;;;12.69;100.00;100799.02;105220;1257;73662;-65
2023/06/08 01:41:59;;;;;;;7.30;2.80;;;;;;;12.71;100.00;100799.30;105446;1256;66122;-62
2023/06/08 01:44:27;;;;;;;6.30;3.50;;;;;;;12.76;100.00;100798.36;105830;1256;71735;-70
2023/06/08 01:46:56;;;;;;;7.30;4.00;;;;;;;12.81;100.00;100800.26;105629;1256;59763;-62
2023/06/08 01:49:27;;;;;;;5.50;3.00;;;;;;;12.89;100.00;100795.36;105382;1251;60619;-62
2023/06/08 01:51:55;;;;;;;6.10;3.20;;;;;;;12.91;100.00;100798.73;105190;1256;73120;-61
2023/06/08 01:54:23;;;;;;;10.80;4.30;;;;;;;12.97;100.00;100802.48;105203;1252;65985;-73
2023/06/08 01:56:52;;;;;;;5.50;3.30;;;;;;;13.08;100.00;100800.04;105197;1253;70936;-62
2023/06/08 01:59:19;;;;;;;8.10;3.50;;;;;;;13.31;100.00;100806.12;105518;1256;61651;-70
2023/06/08 02:01:47;;;;;;;5.60;3.40;;;;;;;13.63;100.00;100800.64;105037;1257;60090;-63
2023/06/08 02:04:15;;;;;;;7.30;3.40;;;;;;;14.00;100.00;100798.33;105554;1252;71844;-62
2023/06/08 02:06:43;;;;;;;6.60;3.80;;;;;;;14.41;100.00;100791.77;105268;1257;66783;-61
2023/06/08 02:09:10;;;;;;;6.30;2.80;;;;;;;14.86;100.00;100789.90;105462;1256;72638;-63
2023/06/08 02:11:38;;;;;;;6.60;3.40;;;;;;;15.32;100.00;100785.10;105100;1251;59726;-64
2023/06/08 02:14:06;;;;;;;6.30;2.90;;;;;;;15.85;100.00;100781.63;105328;1257;59642;-62
2023/06/08 02:16:34;;;;;;;9.30;4.40;;;;;;;16.43;100.00;100779.88;105069;1256;73138;-62
2023/06/08 02:19:03;;;;;;;9.20;5.60;;;;;;;16.99;100.00;100778.26;105422;1254;67068;-63
2023/06/08 02:21:30;;;;;;;9.30;5.20;;;;;;;17.43;100.00;100777.39;105478;1252;72686;-62
2023/06/08 02:23:59;;;;;;;8.10;4.20;;;;;;;17.72;100.00;100774.95;105421;1258;60101;-64
2023/06/08 02:26:27;;;;;;;13.20;5.00;;;;;;;17.97;100.00;100770.25;105593;1251;60840;-71
2023/06/08 02:28:54;;;;;;;9.20;5.30;;;;;;;18.35;100.00;100767.44;105047;1257;72118;-63
2023/06/08 02:31:25;;;;;;;12.70;5.30;;;;;;;18.75;100.00;100769.95;105664;1256;65687;-69
2023/06/08 02:33:53;;;;;;;9.60;5.40;;;;;;;19.13;100.00;100771.83;105604;1255;70765;-61
2023/06/08 02:36:20;;;;;;;6.70;3.60;;;;;;;19.47;100.00;100771.15;105452;1258;61189;-61
2023/06/08 02:38:51;;;;;;;6.20;3.60;;;;;;;19.69;100.00;100771.16;105128;1252;60583;-63
2023/06/08 02:41:19;;;;;;;8.40;3.90;;;;;;;19.77;100.00;100769.33;105179;1259;73098;-71
2023/06/08 02:43:47;;;;;;;5.90;3.50;;;;;;;19.84;100.00;100770.39;105664;1257;66908;-64
2023/06/08 02:46:14;;;;;;;6.50;3.80;;;;;;;20.14;100.00;100770.90;105734;1253;72801;-66
2023/06/08 02:48:42;;;;;;;5.90;3.40;;;;;;;20.77;100.00;100773.25;105517;1257;59682;-61
2023/06/08 02:51:10;;;;;;;6.20;3.70;;;;;;;21.53;100.00;100774.34;105678;1256;59535;-70
2023/06/08 02:53:38;;;;;;;5.50;3.70;;;;;;;22.17;100.00;100771.52;105275;1253;73088;-62
2023/06/08 02:56:06;;;;;;;5.60;3.30;;;;;;;22.76;100.00;100769.52;105590;1256;67004;-62
2023/06/08 02:58:33;;;;;;;6.60;3.40;;;;;;;23.36;100.00;100768.98;105285;1253;72620;-65
2023/06/08 03:09:15;;;;;;;9.90;3.80;;;;;;;24.47;100.00;100766.38;102232;1289;614858;-63
2023/06/08 03:11:47;;;;;;;9.40;4.10;;;;;;;24.85;96.79;100764.31;104528;1263;60396;-64
2023/06/08 03:14:16;;;;;;;5.70;3.60;;;;;;;25.10;92.68;100766.77;104895;1267;59257;-65
2023/06/08 03:16:47;;;;;;;7.50;4.10;;;;;;;25.35;89.09;100770.36;105227;1262;72455;-70
2023/06/08 03:19:14;;;;;;;6.80;3.90;;;;;;;25.62;84.09;100768.23;105023;1262;66999;-63
2023/06/08 03:21:43;;;;;;;8.60;4.20;;;;;;;25.79;79.73;100770.77;104143;1257;1899365;-62
2023/06/08 03:24:10;;;;;;;8.70;4.50;;;;;;;25.85;77.56;100771.50;105659;1256;59321;-70
2023/06/08 03:26:39;;;;;;;6.40;4.90;;;;;;;25.71;78.46;100769.48;105549;1256;59332;-69
2023/06/08 03:29:06;;;;;;;7.40;4.30;;;;;;;25.56;76.37;100774.86;105628;1253;71971;-63
2023/06/08 03:31:36;;;;;;;7.20;4.60;;;;;;;25.40;72.93;100774.14;105621;1253;67276;-62
2023/06/08 03:34:05;;;;;;;11.00;4.90;;;;;;;25.09;73.36;100776.87;105741;1256;72604;-63
2023/06/08 03:36:38;;;;;;;8.60;5.70;;;;;;;24.76;78.00;100773.08;105622;1254;59609;-69
2023/06/08 03:39:11;;;;;;;8.40;5.10;;;;;;;24.41;83.71;100772.84;105269;1256;59538;-63
2023/06/08 03:41:39;;;;;;;7.80;5.70;;;;;;;24.05;90.01;100772.81;105539;1251;72897;-62
2023/06/08 03:44:06;;;;;;;7.90;5.10;;;;;;;23.78;97.12;100773.32;105855;1250;65722;-67
2023/06/08 03:46:35;;;;;;;13.00;5.60;;;;;;;23.56;100.00;100779.23;105392;1256;71462;-68
2023/06/08 03:49:03;;;;;;;10.60;5.20;;;;;;;23.27;100.00;100783.86;105419;1258;59690;-62
2023/06/08 03:51:30;;;;;;;9.40;5.70;;;;;;;23.05;100.00;100783.20;105448;1256;60185;-62
2023/06/08 03:53:57;;;;;;;10.60;5.40;;;;;;;22.93;100.00;100785.92;105399;1256;73111;-62
2023/06/08 03:56:26;;;;;;;10.20;5.00;;;;;;;22.93;100.00;100785.23;105625;1256;67212;-64
2023/06/08 03:58:56;;;;;;;9.00;5.00;;;;;;;22.92;100.00;100785.17;105670;1255;72486;-70
2023/06/08 04:01:24;;;;;;;9.20;4.70;;;;;;;22.78;100.00;100783.89;105655;1257;60472;-65
2023/06/08 04:03:52;;;;;;;7.70;4.90;;;;;;;22.76;100.00;100780.52;105485;1256;59627;-63
2023/06/08 04:06:20;;;;;;;7.40;4.60;;;;;;;22.84;100.00;100780.59;105726;1256;73053;-63
2023/06/08 04:08:48;;;;;;;8.20;5.10;;;;;;;22.94;100.00;100782.69;105162;1258;67606;-63
2023/06/08 04:11:15;;;;;;;9.60;5.40;;;;;;;23.23;100.00;100785.80;105365;1259;72693;-62
2023/06/08 04:13:46;;;;;;;;;;;;;;;23.54;100.00;100784.77;105521;1255;59645;-61
2023/06/08 04:16:18;;;;;;;9.70;4.50;;;;;;;23.95;100.00;100779.48;105323;1257;60259;-69
2023/06/08 04:18:49;;;;;;;8.80;4.60;;;;;;;24.32;99.91;100779.27;105456;1256;73582;-63
2023/06/08 04:21:17;;;;;;;9.50;4.90;;;;;;;24.68;98.24;100779.48;105434;1256;66003;-62
2023/06/08 04:23:46;;;;;;;12.30;5.90;;;;;;;24.85;94.50;100780.67;105422;1256;72505;-62
2023/06/08 04:26:15;;;;;;;16.20;6.30;;;;;;;24.82;92.66;100783.83;105658;1256;60274;-71
2023/06/08 04:28:42;;;;;;;12.60;6.20;;;;;;;24.75;92.74;100786.21;105504;1256;60262;-69
2023/06/08 04:31:10;;;;;;;10.20;5.80;;;;;;;24.71;94.11;100784.66;105568;1260;73373;-63
2023/06/08 04:33:38;;;;;;;10.40;4.90;;;;;;;24.74;93.05;100788.77;105501;1252;67203;-62
2023/06/08 04:36:06;;;;;;;9.50;5.80;;;;;;;24.82;91.96;100787.45;105460;1255;72613;-62
2023/06/08 04:38:34;;;;;;;11.70;6.40;;;;;;;24.88;90.44;100790.88;105868;1251;60243;-65
2023/06/08 04:41:02;;;;;;;11.10;5.20;;;;;;;24.96;90.15;100792.70;105582;1259;59627;-62
2023/06/08 04:43:34;;;;;;;10.80;5.50;;;;;;;25.11;88.65;100794.48;105725;1256;73551;-64
2023/06/08 04:46:07;;;;;;;9.70;5.00;;;;;;;25.21;85.32;100795.92;105670;1256;66239;-64
2023/06/08 04:48:37;;;;;;;9.60;5.00;;;;;;;25.19;84.35;100799.13;105547;1251;71387;-64
2023/06/08 04:51:09;;;;;;;8.40;5.20;;;;;;;25.40;84.74;100800.51;105495;1250;59724;-62
2023/06/08 04:53:37;;;;;;;10.30;4.80;;;;;;;25.84;81.19;100800.45;105597;1255;59495;-61
2023/06/08 04:56:05;;;;;;;11.20;5.60;;;;;;;26.26;75.62;100800.15;105431;1257;72973;-71
2023/06/08 04:58:33;;;;;;;7.20;4.30;;;;;;;26.62;70.37;100795.06;105641;1255;67763;-66
2023/06/08 05:01:00;;;;;;;10.40;5.10;;;;;;;26.91;61.46;100792.36;105625;1254;71467;-65
2023/06/08 05:03:28;;;;;;;10.40;4.60;;;;;;;27.26;56.50;100794.71;105425;1253;59669;-64
2023/06/08 05:05:55;;;;;;;8.50;4.80;;;;;;;27.74;55.35;100790.25;105580;1252;59497;-65
2023/06/08 05:08:23;;;;;;;8.50;5.10;;;;;;;28.16;52.67;100790.41;105548;1256;73006;-64
2023/06/08 05:10:50;;;;;;;8.90;5.40;;;;;;;28.57;49.93;100791.50;105970;1256;67173;-77
2023/06/08 05:13:17;;;;;;;11.70;5.40;;;;;;;29.03;48.44;100788.67;105545;1256;73139;-68
2023/06/08 05:15:45;;;;;;;11.10;6.40;;;;;;;29.41;47.98;100795.38;105551;1256;60088;-65
2023/06/08 05:18:12;;;;;;;11.20;5.30;;;;;;;29.74;45.58;100793.13;105805;1256;59522;-75
2023/06/08 05:20:39;;;;;;;8.80;5.10;;;;;;;30.03;43.44;100793.02;105549;1256;71438;-66
2023/06/08 05:23:06;;;;;;;9.30;4.90;;;;;;;30.34;42.78;100790.42;105692;1255;66007;-79
2023/06/08 05:25:36;;;;;;;12.00;5.20;;;;;;;30.90;40.60;100791.55;105435;1255;71852;-66
2023/06/08 05:28:04;;;;;;;10.70;5.40;;;;;;;31.54;38.86;100784.98;105742;1256;59724;-77
2023/06/08 05:30:31;;;;;;;8.20;4.50;;;;;;;32.12;36.73;100790.14;105607;1255;59558;-67
2023/06/08 05:33:00;;;;;;;9.00;5.30;;;;;;;32.53;35.44;100784.60;105700;1250;71816;-76
2023/06/08 05:35:28;;;;;;;9.70;4.40;;;;;;;32.94;33.44;100787.34;105544;1257;65959;-66
2023/06/08 05:37:55;;;;;;;9.00;4.40;;;;;;;33.15;32.79;100785.46;105846;1251;71238;-68
2023/06/08 05:40:23;;;;;;;9.80;4.30;;;;;;;33.31;32.67;100789.56;105517;1252;59714;-65
2023/06/08 05:42:50;;;;;;;11.60;4.10;;;;;;;33.60;32.55;100791.38;105805;1256;60380;-65
2023/06/08 05:45:17;;;;;;;9.40;4.70;;;;;;;34.11;31.53;100785.98;105481;1251;72877;-65
2023/06/08 05:47:44;;;;;;;8.40;4.80;;;;;;;34.64;30.46;100783.36;105527;1251;59523;-65
2023/06/08 05:50:12;;;;;;;9.10;6.50;;;;;;;35.07;29.76;100781.05;105879;1255;62746;-72
2023/06/08 05:52:39;;;;;;;26.20;6.40;;;;;;;35.43;29.02;100777.02;105476;1256;59665;-65
2023/06/08 05:55:07;;;;;;;9.50;5.50;;;;;;;35.79;28.35;100779.33;105770;1251;59500;-72
2023/06/08 05:57:38;;;;;;;8.70;6.30;;;;;;;36.20;27.60;100778.16;105532;1257;63201;-66
2023/06/08 06:00:09;;;;;;;8.40;5.10;;;;;;;36.45;27.24;100779.75;105349;1257;59555;-66
2023/06/08 06:02:39;;;;;;;8.40;5.70;;;;;;;36.75;26.31;100780.35;105376;1251;62534;-65
2023/06/08 06:05:10;;;;;;;10.90;7.10;;;;;;;36.88;25.91;100780.62;105459;1257;59631;-63
2023/06/08 06:07:38;;;;;;;8.90;7.70;;;;;;;37.20;25.77;100780.36;105441;1256;59497;-66
2023/06/08 06:10:06;;;;;;;11.20;8.20;;;;;;;37.38;25.46;100780.23;105999;1264;63019;-75
2023/06/08 06:12:34;;;;;;;11.90;8.50;;;;;;;37.58;25.46;100779.89;105519;1253;60086;-65
2023/06/08 06:15:01;;;;;;;11.30;7.00;;;;;;;37.89;25.06;100780.29;105350;1251;63976;-75
2023/06/08 06:17:29;;;;;;;10.40;6.80;;;;;;;38.08;23.88;100777.59;105493;1254;59788;-65
2023/06/08 06:19:57;;;;;;;9.40;6.00;;;;;;;37.97;23.82;100775.19;105526;1256;59634;-65
2023/06/08 06:22:24;;;;;;;7.90;5.60;;;;;;;37.80;23.71;100775.02;105564;1251;63111;-65
2023/06/08 06:24:51;;;;;;;9.50;5.30;;;;;;;37.65;23.37;100776.48;105535;1254;59512;-65
2023/06/08 06:27:19;;;;;;;8.70;5.50;;;;;;;37.42;23.76;100779.04;105664;1254;64741;-74
2023/06/08 06:29:46;;;;;;;10.50;4.90;;;;;;;37.02;24.18;100778.18;105820;1257;59739;-70
2023/06/08 06:32:13;;;;;;;7.90;4.60;;;;;;;36.70;24.74;100776.73;105730;1251;59308;-65
2023/06/08 06:34:43;;;;;;;9.30;5.60;;;;;;;36.81;24.58;100776.00;105657;1254;63214;-65
2023/06/08 06:37:10;;;;;;;8.80;4.40;;;;;;;36.89;23.76;100773.02;105758;1254;59513;-66
2023/06/08 06:39:39;;;;;;;7.40;4.10;;;;;;;36.73;23.14;100773.86;105644;1251;64486;-66
2023/06/08 06:42:07;;;;;;;6.50;3.30;;;;;;;36.49;22.50;100772.74;105837;1252;59483;-73
2023/06/08 06:44:42;;;;;;;10.60;5.30;;;;;;;36.21;22.42;100768.20;105573;1251;59708;-66
2023/06/08 06:47:09;;;;;;;6.00;3.30;;;;;;;35.96;22.48;100769.48;105951;1254;64292;-74
2023/06/08 06:49:37;;;;;;;9.30;3.20;;;;;;;35.80;22.03;100768.59;105535;1254;59749;-66
2023/06/08 06:52:04;;;;;;;7.20;3.00;;;;;;;35.65;21.89;100769.21;105846;1250;62529;-75
2023/06/08 06:54:32;;;;;;;11.30;3.60;;;;;;;35.56;22.68;100765.70;105746;1251;59866;-68
2023/06/08 06:56:59;;;;;;;5.00;3.20;;;;;;;35.64;22.79;100765.79;105576;1254;59628;-66
2023/06/08 06:59:28;;;;;;;6.10;3.40;;;;;;;35.72;23.33;100765.80;106034;1250;63081;-73
2023/06/08 07:01:55;;;;;;;8.10;3.80;;;;;;;35.70;23.40;100767.91;105748;1257;67238;-70
2023/06/08 07:04:23;;;;;;;6.20;2.60;;;;;;;35.65;22.91;100767.99;105970;1254;63911;-64
2023/06/08 07:06:53;;;;;;;6.70;2.80;;;;;;;35.32;22.33;100765.98;105748;1255;59295;-65
2023/06/08 07:09:24;;;;;;;6.00;2.50;;;;;;;35.10;22.71;100771.99;105911;1254;59299;-65
2023/06/08 07:11:52;;;;;;;4.60;2.50;;;;;;;35.11;22.57;100767.06;105684;1255;63233;-66
2023/06/08 07:14:39;;;;;;;6.70;2.90;;;;;;;35.24;23.30;100768.75;105850;1254;68012;-66
2023/06/08 07:17:06;;;;;;;9.40;3.70;;;;;;;35.35;22.47;100766.61;106057;1255;62830;-66
2023/06/08 07:19:33;;;;;;;5.30;2.50;;;;;;;35.45;22.82;100765.78;105849;1254;60332;-66
2023/06/08 07:22:01;;;;;;;4.50;2.50;;;;;;;35.37;23.19;100765.12;105869;1254;59410;-65
2023/06/08 07:24:31;;;;;;;;;;;;;;;35.40;22.80;100767.71;106164;1254;64040;-64
2023/06/08 07:27:18;;;;;;;6.50;2.60;;;;;;;35.72;21.53;100765.39;105618;1254;60536;-69
2023/06/08 07:29:45;;;;;;;4.60;2.20;;;;;;;36.02;20.61;100761.83;105863;1251;64535;-63
2023/06/08 07:32:12;;;;;;;9.20;2.40;;;;;;;36.23;20.67;100761.28;105825;1256;60328;-63
2023/06/08 07:34:39;;;;;;;4.40;2.10;;;;;;;36.26;20.51;100762.77;105739;1251;60392;-63
2023/06/08 07:37:06;;;;;;;5.80;2.00;;;;;;;36.17;19.64;100760.55;106026;1254;65331;-65
2023/06/08 07:39:34;;;;;;;3.30;2.10;;;;;;;35.86;19.21;100760.55;105881;1251;67025;-65
2023/06/08 07:42:02;;;;;;;5.30;1.90;;;;;;;35.42;19.95;100759.00;105835;1254;64150;-65
2023/06/08 07:44:29;;;;;;;6.20;2.30;;;;;;;35.20;20.64;100756.77;105761;1254;60952;-64
2023/06/08 07:46:57;;;;;;;5.60;2.10;;;;;;;35.46;20.54;100753.66;105877;1254;59562;-68
2023/06/08 07:49:24;;;;;;;3.40;2.00;;;;;;;35.96;20.11;100754.96;105567;1262;64003;-69
2023/06/08 07:51:51;;;;;;;4.80;2.20;;;;;;;36.55;19.53;100751.84;105679;1252;67201;-65
2023/06/08 07:54:19;;;;;;;4.60;2.30;;;;;;;37.10;19.38;100753.45;105853;1251;64050;-65
2023/06/08 07:56:47;;;;;;;3.60;2.00;;;;;;;37.51;18.51;100753.54;105741;1251;60300;-67
2023/06/08 07:59:14;;;;;;;3.30;1.80;;;;;;;37.56;17.74;100756.45;106158;1251;60449;-71
2023/06/08 08:01:42;;;;;;;3.40;1.90;;;;;;;37.45;17.03;100757.83;105843;1254;65230;-64
2023/06/08 08:04:09;;;;;;;3.60;1.80;;;;;;;37.46;16.52;100752.34;106116;1254;60612;-66
2023/06/08 08:06:37;;;;;;;4.60;1.60;;;;;;;37.52;16.45;100751.33;105785;1255;62870;-66
2023/06/08 08:09:04;;;;;;;2.30;1.60;;;;;;;37.67;16.38;100754.60;105849;1251;60437;-66
2023/06/08 08:11:31;;;;;;;2.90;1.40;;;;;;;37.71;15.90;100756.01;105571;1251;60402;-67
2023/06/08 08:13:58;;;;;;;4.40;1.70;;;;;;;37.63;16.30;100756.69;105997;1251;64064;-66
2023/06/08 08:16:27;;;;;;;2.90;1.70;;;;;;;37.61;16.29;100754.15;105863;1254;60419;-66
2023/06/08 08:18:54;;;;;;;2.70;1.60;;;;;;;37.76;16.45;100752.16;105923;1255;63908;-66
2023/06/08 08:21:21;;;;;;;4.10;1.60;;;;;;;38.05;16.38;100752.25;105978;1251;60343;-71
2023/06/08 08:23:48;;;;;;;3.20;1.80;;;;;;;38.06;16.00;100751.90;105542;1257;60426;-67
2023/06/08 08:26:15;;;;;;;4.70;1.80;;;;;;;37.96;15.76;100753.15;105957;1251;65249;-66
2023/06/08 08:28:44;;;;;;;3.10;1.80;;;;;;;37.89;15.85;100756.58;105807;1251;60469;-65
2023/06/08 08:31:12;;;;;;;4.20;1.70;;;;;;;37.90;15.60;100752.97;106018;1251;62800;-65
2023/06/08 08:33:39;;;;;;;3.60;1.90;;;;;;;37.95;16.05;100752.77;105868;1254;60329;-68
2023/06/08 08:36:06;;;;;;;4.10;2.00;;;;;;;38.05;16.57;100752.65;106090;1254;60424;-65
2023/06/08 08:38:34;;;;;;;3.90;2.10;;;;;;;38.15;16.44;100754.64;105760;1254;65049;-66
2023/06/08 08:41:04;;;;;;;4.60;1.90;;;;;;;38.19;16.25;100749.90;105984;1254;60351;-64
2023/06/08 08:43:37;;;;;;;3.60;2.00;;;;;;;38.24;16.37;100751.23;105912;1256;62709;-68
2023/06/08 08:46:07;;;;;;;3.40;1.90;;;;;;;38.25;17.20;100748.69;106001;1257;60524;-65
2023/06/08 08:48:37;;;;;;;2.80;1.50;;;;;;;38.49;17.02;100745.91;105655;1257;60467;-64
2023/06/08 08:51:04;;;;;;;3.50;2.00;;;;;;;38.71;16.23;100745.67;105732;1257;65340;-65
2023/06/08 08:53:33;;;;;;;5.00;2.00;;;;;;;38.42;15.95;100749.18;105659;1257;60454;-68
2023/06/08 08:56:03;;;;;;;3.70;2.10;;;;;;;37.97;16.33;100748.98;105496;1256;62641;-64
2023/06/08 08:58:30;;;;;;;4.00;2.10;;;;;;;37.52;16.18;100744.91;105758;1254;60503;-65
2023/06/08 09:00:57;;;;;;;3.60;1.80;;;;;;;37.03;17.12;100742.55;105858;1251;60419;-66
2023/06/08 09:03:26;;;;;;;2.70;1.50;;;;;;;36.96;17.16;100734.04;105769;1254;65180;-64
2023/06/08 09:05:53;;;;;;;3.40;1.60;;;;;;;37.09;17.20;100732.95;105322;1251;65663;-64
2023/06/08 09:08:22;;;;;;;8.20;2.20;;;;;;;37.31;17.07;100728.56;105523;1254;64090;-63
2023/06/08 09:11:06;;;;;;;3.80;2.20;;;;;;;37.50;17.06;100729.27;105735;1254;60537;-67
2023/06/08 09:13:33;;;;;;;4.10;1.50;;;;;;;37.47;17.45;100726.48;105184;1263;60722;-70
2023/06/08 09:16:10;;;;;;;3.90;1.40;;;;;;;37.48;16.92;100727.29;105469;1251;63709;-68
2023/06/08 09:18:38;;;;;;;3.20;1.90;;;;;;;37.38;16.36;100722.37;105770;1254;60422;-69
2023/06/08 09:21:27;;;;;;;3.10;1.70;;;;;;;37.11;16.52;100727.00;105781;1254;63905;-69
2023/06/08 09:24:11;;;;;;;4.70;2.00;;;;;;;36.98;16.88;100724.52;105610;1251;60523;-69
2023/06/08 09:26:43;;;;;;;3.00;1.70;;;;;;;37.14;16.85;100721.02;105666;1251;60326;-65
2023/06/08 09:29:09;;;;;;;2.70;1.80;;;;;;;37.29;16.77;100720.54;105401;1253;73723;-69
2023/06/08 09:31:39;;;;;;;4.00;1.60;;;;;;;37.20;16.53;100720.08;105401;1251;59571;-68
2023/06/08 09:34:08;;;;;;;3.00;1.80;;;;;;;37.01;16.20;100719.24;106172;1254;64214;-69
2023/06/08 09:36:38;;;;;;;3.80;1.60;;;;;;;36.94;16.30;100716.73;106310;1255;60361;-71
2023/06/08 09:39:06;;;;;;;4.00;1.90;;;;;;;37.06;16.55;100712.98;106384;1253;60508;-68
2023/06/08 09:41:36;;;;;;;7.50;2.40;;;;;;;37.13;16.60;100717.13;106107;1257;66031;-66
2023/06/08 09:44:17;;;;;;;;;;;;;;;37.03;16.58;100711.91;105999;1251;60335;-69
2023/06/08 09:46:48;;;;;;;;;;;;;;;37.00;16.57;100711.91;105595;1254;64604;-65
2023/06/08 09:49:16;;;;;;;2.80;1.50;;;;;;;36.93;16.59;100705.59;105517;1256;60498;-67
2023/06/08 09:51:51;;;;;;;3.90;2.10;;;;;;;37.04;16.91;100702.46;105611;1251;60483;-68
2023/06/08 09:54:22;;;;;;;3.30;1.80;;;;;;;37.28;16.98;100701.00;106285;1254;63805;-72
2023/06/08 09:56:55;;;;;;;4.30;2.30;;;;;;;37.14;16.80;100699.04;106165;1256;66858;-71
2023/06/08 09:59:27;;;;;;;4.50;2.00;;;;;;;36.50;16.94;100698.16;106163;1255;64088;-74
2023/06/08 10:01:55;;;;;;;3.60;2.40;;;;;;;35.92;17.47;100707.11;105790;1253;60502;-70
2023/06/08 10:04:23;;;;;;;6.30;2.20;;;;;;;35.64;17.73;100700.82;105435;1252;60419;-69
2023/06/08 10:07:11;;;;;;;3.60;2.40;;;;;;;35.56;18.28;100693.86;106390;1251;65040;-68
2023/06/08 10:09:41;;;;;;;4.60;2.60;;;;;;;35.71;18.24;100692.30;105482;1257;59536;-69
2023/06/08 10:12:09;;;;;;;;;;;;;;;35.70;18.02;100693.66;105941;1254;64403;-70
2023/06/08 10:14:36;;;;;;;4.90;1.90;;;;;;;35.55;18.04;100691.77;106377;1253;60434;-70
2023/06/08 10:17:04;;;;;;;4.60;2.30;;;;;;;35.45;18.60;100690.89;106485;1250;60405;-73
2023/06/08 10:19:32;;;;;;;4.10;2.30;;;;;;;35.35;18.64;100698.86;106491;1254;65303;-69
2023/06/08 10:22:00;;;;;;;5.10;2.40;;;;;;;35.28;18.83;100695.20;105934;1251;60443;-72
2023/06/08 10:24:27;;;;;;;4.60;2.50;;;;;;;35.34;18.91;100701.67;106190;1251;73679;-69
2023/06/08 10:27:23;;;;;;;4.20;2.50;;;;;;;35.14;18.06;100696.85;105995;1250;60540;-70
2023/06/08 10:29:58;;;;;;;4.50;2.70;;;;;;;34.71;18.57;100698.44;106446;1252;60394;-72
2023/06/08 10:32:34;;;;;;;4.40;2.60;;;;;;;34.47;18.76;100696.88;106113;1254;74721;-69
2023/06/08 10:35:06;;;;;;;3.90;2.30;;;;;;;34.47;19.22;100694.91;106402;1251;67849;-69
2023/06/08 10:37:36;;;;;;;3.40;2.40;;;;;;;34.36;19.08;100688.48;106251;1250;72418;-69
2023/06/08 10:40:08;;;;;;;3.60;2.40;;;;;;;34.37;19.34;100686.36;105637;1256;60428;-68
2023/06/08 10:42:35;;;;;;;4.40;2.50;;;;;;;34.58;19.24;100678.60;105804;1251;60476;-69
2023/06/08 10:45:04;;;;;;;4.90;2.60;;;;;;;34.86;19.16;100674.19;106033;1254;73671;-69
2023/06/08 10:47:33;;;;;;;5.90;2.60;;;;;;;35.18;19.14;100672.31;106315;1250;67737;-72
2023/06/08 10:50:02;;;;;;;3.70;2.60;;;;;;;35.27;18.96;100668.48;106326;1251;72873;-71
2023/06/08 10:52:39;;;;;;;5.80;2.90;;;;;;;35.09;19.16;100669.77;106106;1250;60933;-71
2023/06/08 10:55:13;;;;;;;4.00;2.40;;;;;;;34.73;19.34;100670.05;106420;1250;60421;-75
2023/06/08 10:57:52;;;;;;;6.20;2.90;;;;;;;34.49;19.21;100674.32;106230;1254;65167;-69
2023/06/08 11:00:27;;;;;;;5.10;2.90;;;;;;;34.39;19.12;100672.98;105956;1254;59279;-70
2023/06/08 11:03:15;;;;;;;5.20;2.60;;;;;;;34.13;19.93;100673.45;105475;1251;71519;-73
2023/06/08 11:05:45;;;;;;;4.90;3.00;;;;;;;34.04;19.50;100673.41;105500;1250;60526;-69
2023/06/08 11:08:12;;;;;;;4.10;2.40;;;;;;;33.89;19.30;100673.77;105273;1250;60499;-69
2023/06/08 11:10:39;;;;;;;9.10;2.70;;;;;;;33.82;19.84;100676.97;105642;1254;74345;-70
2023/06/08 11:13:11;;;;;;;5.80;2.80;;;;;;;33.87;19.70;100675.31;105337;1250;67190;-70
2023/06/08 11:15:42;;;;;;;5.70;3.20;;;;;;;34.03;19.50;100674.99;105486;1254;63944;-70
2023/06/08 11:18:10;;;;;;;5.30;3.20;;;;;;;33.93;19.53;100670.05;106176;1250;61164;-71
2023/06/08 11:20:39;;;;;;;6.50;2.60;;;;;;;33.75;19.95;100671.40;105571;1251;60393;-76
2023/06/08 11:23:07;;;;;;;4.70;2.70;;;;;;;33.87;19.98;100660.49;106285;1254;64963;-71
2023/06/08 11:25:35;;;;;;;3.90;2.50;;;;;;;34.14;19.69;100665.50;106416;1251;65841;-72
2023/06/08 11:28:02;;;;;;;3.60;2.50;;;;;;;34.11;19.95;100660.70;106285;1251;73591;-71
2023/06/08 11:30:34;;;;;;;3.80;2.50;;;;;;;33.89;19.68;100662.41;106209;1257;60623;-69
2023/06/08 11:33:06;;;;;;;3.70;2.50;;;;;;;33.54;20.41;100660.02;105833;1250;60344;-72
2023/06/08 11:35:34;;;;;;;4.10;2.70;;;;;;;33.48;20.21;100657.23;106487;1254;73990;-76
2023/06/08 11:38:01;;;;;;;7.30;3.40;;;;;;;33.43;20.30;100649.16;106274;1251;67974;-72
2023/06/08 11:40:29;;;;;;;5.10;3.10;;;;;;;33.55;20.28;100654.83;106084;1251;72471;-72